Manhattan Regional Airport


Codes: KMHK/MHK
Name: Manhattan Regional Airport
City: Manhattan
Country: United States
Elevation: 1057 ft.
Wikipedia:

Photos at Manhattan Regional Airport


   Photos courtesy of SpottingLog. You can add your own sightings and photos by signing up for a free trial today.



No photos found.

Weather at Manhattan Regional Airport


Time (UTC)DescriptionTempratureWindCloud coverageVisibilityPressureHumidity
16-Jun-2024 09:00Overcast Clouds23°C18 mph, SW100%10000m1010hPa89%
16-Jun-2024 12:00Overcast Clouds23°C16 mph, S87%10000m1009hPa85%
16-Jun-2024 15:00Scattered Clouds26°C20 mph, SW42%10000m1008hPa75%
16-Jun-2024 18:00Clear Sky31°C20 mph, S6%10000m1007hPa57%
16-Jun-2024 21:00Clear Sky33°C18 mph, S0%10000m1006hPa54%
17-Jun-2024 00:00Clear Sky29°C20 mph, S0%10000m1005hPa73%
17-Jun-2024 03:00Clear Sky26°C22 mph, S0%10000m1007hPa73%
17-Jun-2024 06:00Light Rain24°C18 mph, S4%10000m1007hPa77%
17-Jun-2024 09:00Scattered Clouds24°C18 mph, S49%10000m1007hPa68%
17-Jun-2024 12:00Scattered Clouds23°C16 mph, S45%10000m1007hPa74%
17-Jun-2024 15:00Broken Clouds26°C20 mph, S74%10000m1007hPa70%
17-Jun-2024 18:00Broken Clouds30°C27 mph, S74%10000m1006hPa62%
17-Jun-2024 21:00Broken Clouds31°C27 mph, S63%10000m1004hPa62%
18-Jun-2024 00:00Scattered Clouds29°C27 mph, S38%10000m1004hPa67%
18-Jun-2024 03:00Clear Sky27°C25 mph, S0%10000m1005hPa57%
18-Jun-2024 06:00Clear Sky25°C25 mph, S2%10000m1005hPa74%
18-Jun-2024 09:00Clear Sky24°C20 mph, S1%10000m1005hPa77%
18-Jun-2024 12:00Clear Sky23°C22 mph, S1%10000m1007hPa82%
18-Jun-2024 15:00Scattered Clouds25°C27 mph, S27%10000m1007hPa80%
18-Jun-2024 18:00Broken Clouds27°C27 mph, S60%10000m1008hPa73%
18-Jun-2024 21:00Broken Clouds29°C27 mph, S68%10000m1007hPa67%
19-Jun-2024 00:00Scattered Clouds28°C22 mph, S35%10000m1006hPa71%
19-Jun-2024 03:00Light Rain26°C22 mph, SE34%10000m1010hPa75%
19-Jun-2024 06:00Broken Clouds24°C16 mph, S65%10000m1013hPa78%
19-Jun-2024 09:00Light Rain23°C11 mph, S100%10000m1015hPa80%
19-Jun-2024 12:00Light Rain22°C9 mph, S100%10000m1017hPa90%
19-Jun-2024 15:00Moderate Rain22°C9 mph, S100%10000m1018hPa90%
19-Jun-2024 18:00Light Rain24°C13 mph, S100%10000m1019hPa80%
19-Jun-2024 21:00Light Rain26°C7 mph, S100%10000m1018hPa77%
20-Jun-2024 00:00Moderate Rain25°C13 mph, S98%10000m1018hPa82%
20-Jun-2024 03:00Scattered Clouds21°C9 mph, SE39%10000m1021hPa89%
20-Jun-2024 06:00Scattered Clouds20°C9 mph, S25%10000m1022hPa94%
20-Jun-2024 09:00Overcast Clouds19°C7 mph, S87%10000m1023hPa97%
20-Jun-2024 12:00Broken Clouds20°C7 mph, S83%10000m1024hPa95%
20-Jun-2024 15:00Overcast Clouds22°C9 mph, S100%10000m1024hPa86%
20-Jun-2024 18:00Overcast Clouds24°C9 mph, S100%10000m1024hPa76%
20-Jun-2024 21:00Overcast Clouds27°C16 mph, S93%10000m1022hPa63%
21-Jun-2024 00:00Broken Clouds25°C11 mph, S68%10000m1021hPa73%
21-Jun-2024 03:00Scattered Clouds19°C7 mph, S39%10000m1022hPa91%
21-Jun-2024 06:00Broken Clouds19°C4 mph, SW52%10000m1023hPa90%